createdAt,value
2023-01-10T00:02:27.660Z,42.40
2023-01-10T00:04:56.183Z,43.28
2023-01-10T00:07:25.153Z,42.35
2023-01-10T00:09:53.996Z,41.67
2023-01-10T00:12:39.988Z,43.63
2023-01-10T00:15:11.504Z,44.33
2023-01-10T00:17:40.429Z,44.70
2023-01-10T00:20:10.747Z,42.03
2023-01-10T00:22:39.307Z,42.70
2023-01-10T00:25:08.802Z,43.90
2023-01-10T00:27:37.801Z,43.90
2023-01-10T00:30:14.194Z,42.55
2023-01-10T00:32:45.382Z,45.90
2023-01-10T00:35:14.666Z,43.95
2023-01-10T00:37:43.370Z,46.28
2023-01-10T00:40:13.982Z,45.63
2023-01-10T00:43:00.135Z,48.83
2023-01-10T00:45:30.208Z,46.50
2023-01-10T00:48:00.577Z,50.42
2023-01-10T00:52:58.324Z,50.33
2023-01-10T00:55:26.966Z,48.13
2023-01-10T00:57:56.755Z,52.35
2023-01-10T01:00:25.831Z,48.03
2023-01-10T01:02:55.974Z,51.58
2023-01-10T01:05:27.353Z,50.20
2023-01-10T01:07:55.835Z,49.53
2023-01-10T01:10:27.915Z,50.55
2023-01-10T01:12:58.663Z,51.08
2023-01-10T01:15:28.964Z,51.35
2023-01-10T01:20:28.405Z,46.47
2023-01-10T01:22:57.050Z,49.17
2023-01-10T01:25:26.367Z,48.05
2023-01-10T01:27:55.254Z,49.35
2023-01-10T01:30:24.475Z,50.60
2023-01-10T01:32:53.361Z,49.22
2023-01-10T01:35:22.350Z,51.15
2023-01-10T01:37:52.589Z,54.03
2023-01-10T01:40:22.514Z,52.50
2023-01-10T01:42:55.764Z,50.08
2023-01-10T01:45:42.233Z,51.13
2023-01-10T01:48:25.255Z,49.65
2023-01-10T01:50:59.482Z,48.58
2023-01-10T01:53:32.776Z,49.38
2023-01-10T01:56:05.303Z,49.53
2023-01-10T01:58:39.822Z,49.70
2023-01-10T02:01:08.899Z,49.50
2023-01-10T02:03:39.338Z,49.78
2023-01-10T02:06:09.030Z,50.08
2023-01-10T02:08:41.278Z,50.80
2023-01-10T02:11:11.862Z,50.75
2023-01-10T02:13:42.356Z,51.13
2023-01-10T02:16:11.569Z,50.42
2023-01-10T02:18:42.808Z,53.85
2023-01-10T02:21:44.084Z,50.60
2023-01-10T02:24:43.491Z,49.30
2023-01-10T02:27:16.487Z,49.85
2023-01-10T02:30:32.686Z,50.95
2023-01-10T02:33:07.443Z,49.17
2023-01-10T02:36:02.625Z,50.42
2023-01-10T02:38:40.456Z,47.85
2023-01-10T02:41:16.503Z,51.95
2023-01-10T02:43:48.500Z,50.08
2023-01-10T02:46:21.548Z,51.67
2023-01-10T02:48:52.120Z,52.55
2023-01-10T02:51:22.554Z,52.10
2023-01-10T02:53:55.357Z,50.13
2023-01-10T02:56:40.551Z,53.78
2023-01-10T02:59:39.776Z,52.05
2023-01-10T03:02:18.393Z,51.10
2023-01-10T03:04:54.243Z,49.95
2023-01-10T03:07:27.627Z,52.38
2023-01-10T03:10:00.723Z,52.05
2023-01-10T03:12:39.255Z,51.63
2023-01-10T03:15:09.573Z,52.40
2023-01-10T03:20:10.070Z,46.92
2023-01-10T03:22:41.113Z,50.15
2023-01-10T03:25:13.558Z,49.55
2023-01-10T03:27:49.608Z,50.60
2023-01-10T03:30:22.450Z,49.72
2023-01-10T03:32:51.491Z,50.50
2023-01-10T03:35:24.185Z,49.30
2023-01-10T03:37:58.407Z,50.90
2023-01-10T03:40:32.218Z,53.17
2023-01-10T03:43:22.031Z,50.85
2023-01-10T03:45:53.332Z,51.17
2023-01-10T03:48:23.626Z,51.60
2023-01-10T03:53:22.578Z,48.60
2023-01-10T03:55:51.064Z,48.58
2023-01-10T03:58:21.953Z,50.38
2023-01-10T04:00:51.014Z,47.85
2023-01-10T04:03:19.922Z,48.25
2023-01-10T04:05:48.902Z,48.70
2023-01-10T04:08:19.559Z,45.75
2023-01-10T04:13:19.228Z,49.00
2023-01-10T04:15:48.114Z,49.05
2023-01-10T04:18:17.300Z,45.95
2023-01-10T04:20:46.276Z,46.30
2023-01-10T04:23:15.262Z,46.92
2023-01-10T04:25:50.894Z,46.05
2023-01-10T04:28:19.803Z,49.58
2023-01-10T04:30:48.719Z,46.75
2023-01-10T04:33:17.697Z,47.60
2023-01-10T04:35:49.287Z,47.22
2023-01-10T04:38:18.667Z,46.33
2023-01-10T04:40:54.201Z,47.47
2023-01-10T04:43:23.431Z,48.50
2023-01-10T04:45:52.461Z,47.22
2023-01-10T04:48:21.366Z,46.90
2023-01-10T04:50:53.510Z,46.55
2023-01-10T04:53:22.793Z,45.55
2023-01-10T04:55:53.022Z,46.80
2023-01-10T04:58:22.165Z,45.85
2023-01-10T05:00:52.638Z,47.50
2023-01-10T05:03:21.585Z,44.97
2023-01-10T05:05:51.156Z,43.30
2023-01-10T05:08:20.032Z,43.85
2023-01-10T05:10:48.631Z,44.88
2023-01-10T05:13:19.029Z,44.42
2023-01-10T05:15:48.739Z,44.38
2023-01-10T05:18:17.620Z,44.63
2023-01-10T05:20:46.526Z,41.53
2023-01-10T05:23:15.430Z,44.25
2023-01-10T05:25:43.913Z,47.10
2023-01-10T05:28:12.760Z,46.10
2023-01-10T05:30:43.308Z,45.50
2023-01-10T05:33:12.217Z,47.83
2023-01-10T05:35:41.202Z,43.85
2023-01-10T05:38:10.101Z,45.45
2023-01-10T05:40:38.611Z,45.13
2023-01-10T05:43:07.551Z,44.50
2023-01-10T05:45:36.481Z,44.85
2023-01-10T05:48:07.445Z,46.20
2023-01-10T05:50:36.337Z,43.47
2023-01-10T05:53:06.002Z,45.25
2023-01-10T05:55:34.891Z,43.30
2023-01-10T05:58:03.895Z,44.25
2023-01-10T06:00:32.893Z,45.47
2023-01-10T06:03:01.866Z,46.53
2023-01-10T06:05:32.366Z,45.40
2023-01-10T06:10:29.734Z,44.53
2023-01-10T06:12:58.666Z,44.67
2023-01-10T06:15:28.202Z,44.90
2023-01-10T06:17:57.303Z,44.85
2023-01-10T06:23:02.419Z,44.10
2023-01-10T06:25:31.503Z,47.60
2023-01-10T06:28:01.797Z,44.47
2023-01-10T06:33:02.749Z,42.90
2023-01-10T06:35:31.746Z,43.17
2023-01-10T06:38:02.113Z,42.85
2023-01-10T06:40:31.443Z,43.28
2023-01-10T06:43:00.497Z,43.13
2023-01-10T06:45:31.202Z,44.33
2023-01-10T06:48:01.219Z,44.97
2023-01-10T06:50:30.134Z,43.53
2023-01-10T06:52:59.562Z,42.30
2023-01-10T06:55:30.234Z,44.38
2023-01-10T06:57:59.478Z,44.25
2023-01-10T07:00:29.192Z,42.50
2023-01-10T07:03:02.829Z,44.75
2023-01-10T07:05:32.000Z,41.92
2023-01-10T07:08:01.640Z,44.35
2023-01-10T07:10:31.562Z,42.13
2023-01-10T07:15:30.215Z,40.90
2023-01-10T07:17:59.277Z,38.83
2023-01-10T07:20:28.770Z,39.72
2023-01-10T07:22:58.256Z,39.30
2023-01-10T07:25:30.968Z,38.38
2023-01-10T07:28:01.314Z,38.28
2023-01-10T07:32:59.237Z,37.22
2023-01-10T07:35:28.213Z,36.07
2023-01-10T07:37:59.706Z,37.25
2023-01-10T07:40:28.818Z,34.10
2023-01-10T07:42:58.434Z,33.92
2023-01-10T07:45:30.099Z,35.13
2023-01-10T07:47:59.199Z,34.50
2023-01-10T07:50:29.109Z,35.88
2023-01-10T07:52:57.675Z,36.17
2023-01-10T07:55:27.493Z,36.90
2023-01-10T07:57:56.420Z,33.60
2023-01-10T08:00:25.689Z,36.20
2023-01-10T08:02:56.642Z,35.58
2023-01-10T08:05:25.717Z,35.13
2023-01-10T08:07:56.307Z,34.05
2023-01-10T08:10:26.095Z,35.55
2023-01-10T08:12:55.567Z,34.38
2023-01-10T08:15:24.511Z,36.80
2023-01-10T08:17:53.396Z,34.97
2023-01-10T08:20:25.244Z,35.83
2023-01-10T08:22:53.875Z,31.92
2023-01-10T08:25:22.806Z,34.42
2023-01-10T08:27:51.584Z,35.67
2023-01-10T08:30:20.960Z,34.40
2023-01-10T08:32:50.787Z,33.63
2023-01-10T08:35:19.932Z,33.83
2023-01-10T08:37:49.804Z,33.97
2023-01-10T08:40:18.761Z,32.00
2023-01-10T08:42:47.600Z,32.90
2023-01-10T08:45:16.882Z,33.78
2023-01-10T08:47:45.761Z,32.78
2023-01-10T08:50:14.822Z,34.35
2023-01-10T08:52:43.283Z,30.17
2023-01-10T08:55:13.675Z,32.97
2023-01-10T08:57:42.642Z,31.60
2023-01-10T09:00:13.365Z,31.15
2023-01-10T09:02:42.354Z,31.08
2023-01-10T09:05:22.241Z,31.45
2023-01-10T09:07:54.968Z,30.88
2023-01-10T09:10:25.224Z,32.83
2023-01-10T09:12:57.326Z,32.13
2023-01-10T09:15:27.950Z,31.00
2023-01-10T09:17:57.249Z,30.63
2023-01-10T09:20:27.071Z,30.90
2023-01-10T09:22:55.589Z,30.90
2023-01-10T09:25:26.256Z,30.27
2023-01-10T09:27:58.976Z,31.77
2023-01-10T09:30:28.483Z,31.88
2023-01-10T09:32:58.672Z,31.40
2023-01-10T09:35:29.196Z,31.50
2023-01-10T09:40:35.371Z,31.17
2023-01-10T09:43:10.372Z,28.58
2023-01-10T09:45:44.405Z,29.60
2023-01-10T09:48:17.569Z,31.45
2023-01-10T09:50:52.546Z,30.55
2023-01-10T09:53:24.132Z,29.55
2023-01-10T09:55:56.314Z,31.70
2023-01-10T09:58:27.827Z,29.55
2023-01-10T10:01:00.942Z,31.75
2023-01-10T10:03:33.112Z,31.88
2023-01-10T10:06:11.687Z,29.92
2023-01-10T10:08:41.964Z,30.35
2023-01-10T10:11:24.617Z,29.87
2023-01-10T10:13:56.951Z,31.60
2023-01-10T10:16:32.970Z,29.90
2023-01-10T10:19:10.241Z,29.70
2023-01-10T10:21:44.592Z,32.95
2023-01-10T10:24:35.790Z,28.85
2023-01-10T10:27:14.123Z,29.13
2023-01-10T10:30:01.939Z,29.52
2023-01-10T10:32:43.130Z,29.48
2023-01-10T10:35:15.805Z,29.42
2023-01-10T10:37:47.433Z,27.35
2023-01-10T10:40:20.322Z,30.60
2023-01-10T10:42:53.540Z,29.38
2023-01-10T10:45:26.230Z,29.38
2023-01-10T10:48:00.508Z,30.33
2023-01-10T10:50:33.117Z,29.00
2023-01-10T10:53:02.535Z,29.42
2023-01-10T10:55:34.855Z,28.08
2023-01-10T10:58:06.302Z,28.98
2023-01-10T11:00:36.047Z,30.17
2023-01-10T11:03:18.256Z,29.05
2023-01-10T11:05:50.232Z,29.13
2023-01-10T11:08:20.033Z,30.20
2023-01-10T11:10:50.484Z,28.73
2023-01-10T11:13:28.615Z,28.23
2023-01-10T11:15:57.595Z,28.30
2023-01-10T11:18:28.396Z,28.88
2023-01-10T11:21:00.372Z,28.48
2023-01-10T11:23:39.331Z,26.48
2023-01-10T11:26:11.271Z,28.27
2023-01-10T11:28:41.502Z,27.08
2023-01-10T11:31:10.564Z,27.77
2023-01-10T11:33:40.342Z,28.52
2023-01-10T11:36:12.970Z,27.75
2023-01-10T11:38:41.960Z,28.67
2023-01-10T11:41:27.349Z,28.75
2023-01-10T11:44:17.005Z,26.88
2023-01-10T11:46:46.373Z,27.80
2023-01-10T11:49:19.922Z,27.88
2023-01-10T11:51:50.321Z,27.25
2023-01-10T11:56:56.806Z,29.15
2023-01-10T11:59:27.961Z,26.92
2023-01-10T12:02:00.683Z,28.02
2023-01-10T12:04:31.849Z,26.00
2023-01-10T12:07:03.303Z,26.27
2023-01-10T12:09:41.015Z,25.65
2023-01-10T12:12:21.971Z,27.95
2023-01-10T12:14:53.044Z,29.27
2023-01-10T12:17:26.542Z,28.05
2023-01-10T12:19:58.509Z,28.13
2023-01-10T12:22:32.208Z,27.48
2023-01-10T12:25:01.846Z,28.25
2023-01-10T12:27:30.984Z,28.40
2023-01-10T12:30:06.287Z,28.85
2023-01-10T12:32:40.071Z,28.02
2023-01-10T12:35:13.602Z,29.02
2023-01-10T12:37:43.978Z,28.50
2023-01-10T12:40:16.941Z,27.80
2023-01-10T12:43:13.106Z,29.33
2023-01-10T12:45:47.244Z,29.65
2023-01-10T12:48:22.346Z,28.25
2023-01-10T12:50:54.097Z,29.02
2023-01-10T12:53:30.648Z,26.80
2023-01-10T12:56:01.988Z,28.75
2023-01-10T12:58:37.566Z,29.13
2023-01-10T13:01:08.748Z,27.58
2023-01-10T13:03:37.844Z,27.98
2023-01-10T13:06:07.150Z,26.08
2023-01-10T13:08:37.221Z,29.00
2023-01-10T13:11:09.520Z,29.40
2023-01-10T13:13:40.477Z,30.55
2023-01-10T13:16:34.452Z,28.52
2023-01-10T13:19:06.521Z,28.95
2023-01-10T13:21:36.323Z,28.25
2023-01-10T13:24:06.910Z,27.67
2023-01-10T13:26:48.686Z,29.35
2023-01-10T13:29:20.410Z,27.95
2023-01-10T13:31:57.382Z,26.65
2023-01-10T13:34:29.067Z,28.52
2023-01-10T13:37:01.598Z,27.58
2023-01-10T13:39:34.435Z,26.98
2023-01-10T13:42:44.941Z,27.58
2023-01-10T13:48:27.696Z,28.65
2023-01-10T13:51:17.945Z,28.20
2023-01-10T13:53:54.998Z,27.38
2023-01-10T13:56:34.523Z,29.35
2023-01-10T13:59:21.380Z,26.13
2023-01-10T14:02:11.886Z,27.10
2023-01-10T14:04:47.536Z,27.20
2023-01-10T14:07:23.597Z,25.73
2023-01-10T14:09:53.235Z,25.20
2023-01-10T14:12:26.686Z,25.27
2023-01-10T14:15:00.141Z,26.30
2023-01-10T14:17:30.598Z,26.65
2023-01-10T14:20:05.005Z,25.33
2023-01-10T14:22:35.483Z,24.15
2023-01-10T14:25:06.347Z,26.27
2023-01-10T14:27:46.507Z,26.02
2023-01-10T14:30:20.416Z,26.17
2023-01-10T14:32:52.385Z,24.75
2023-01-10T14:35:24.048Z,26.65
2023-01-10T14:37:54.394Z,24.85
2023-01-10T14:40:28.427Z,25.90
2023-01-10T14:43:00.096Z,25.15
2023-01-10T14:45:36.548Z,22.98
2023-01-10T14:48:20.997Z,24.95
2023-01-10T14:50:51.328Z,23.00
2023-01-10T14:55:59.252Z,22.13
2023-01-10T14:58:28.269Z,22.23
2023-01-10T15:00:58.386Z,25.02
2023-01-10T15:03:27.237Z,24.98
2023-01-10T15:05:59.081Z,24.58
2023-01-10T15:08:30.398Z,26.80
2023-01-10T15:11:04.208Z,26.35
2023-01-10T15:13:35.950Z,25.23
2023-01-10T15:16:07.888Z,26.35
2023-01-10T15:18:39.406Z,26.55
2023-01-10T15:21:12.962Z,27.02
2023-01-10T15:23:43.613Z,26.88
2023-01-10T15:26:16.364Z,26.05
2023-01-10T15:28:48.691Z,25.83
2023-01-10T15:31:18.413Z,26.05
2023-01-10T15:33:56.385Z,27.60
2023-01-10T15:36:29.466Z,27.45
2023-01-10T15:38:58.388Z,29.00
2023-01-10T15:41:28.113Z,29.48
2023-01-10T15:43:56.511Z,29.15
2023-01-10T15:46:27.302Z,29.70
2023-01-10T15:48:58.964Z,28.60
2023-01-10T15:51:31.574Z,29.42
2023-01-10T15:54:05.422Z,30.75
2023-01-10T15:56:37.897Z,30.77
2023-01-10T15:59:07.737Z,32.20
2023-01-10T16:01:36.455Z,31.00
2023-01-10T16:04:06.482Z,30.73
2023-01-10T16:06:37.991Z,31.83
2023-01-10T16:09:08.643Z,32.35
2023-01-10T16:11:58.209Z,34.30
2023-01-10T16:14:30.484Z,33.45
2023-01-10T16:16:58.988Z,31.27
2023-01-10T16:19:28.321Z,30.77
2023-01-10T16:21:59.902Z,32.92
2023-01-10T16:24:30.445Z,32.13
2023-01-10T16:27:00.650Z,32.33
2023-01-10T16:29:29.522Z,31.20
2023-01-10T16:31:58.944Z,31.58
2023-01-10T16:34:27.446Z,29.85
2023-01-10T16:36:56.220Z,29.73
2023-01-10T16:39:26.520Z,27.60
2023-01-10T16:44:41.757Z,29.73
2023-01-10T16:47:10.583Z,28.73
2023-01-10T16:49:41.084Z,29.95
2023-01-10T16:52:14.384Z,29.88
2023-01-10T16:54:44.741Z,29.42
2023-01-10T16:59:43.989Z,29.70
2023-01-10T17:02:18.944Z,29.55
2023-01-10T17:04:48.055Z,29.23
2023-01-10T17:07:16.823Z,29.30
2023-01-10T17:09:47.318Z,29.83
2023-01-10T17:12:19.740Z,28.75
2023-01-10T17:14:49.495Z,28.98
2023-01-10T17:17:19.284Z,29.98
2023-01-10T17:19:47.875Z,29.23
2023-01-10T17:22:16.829Z,30.83
2023-01-10T17:24:47.217Z,31.63
2023-01-10T17:27:16.575Z,31.27
2023-01-10T17:29:45.409Z,30.23
2023-01-10T17:32:14.339Z,29.02
2023-01-10T17:34:42.896Z,29.75
2023-01-10T17:37:11.742Z,30.27
2023-01-10T17:39:40.631Z,29.60
2023-01-10T17:42:11.277Z,29.42
2023-01-10T17:47:09.322Z,27.75
2023-01-10T17:49:37.788Z,27.67
2023-01-10T17:52:06.692Z,28.77
2023-01-10T17:54:36.349Z,30.15
2023-01-10T17:57:05.523Z,26.25
2023-01-10T17:59:36.706Z,27.67
2023-01-10T18:02:06.106Z,26.95
2023-01-10T18:04:34.676Z,28.23
2023-01-10T18:07:03.535Z,27.27
2023-01-10T18:09:32.340Z,28.83
2023-01-10T18:12:01.238Z,28.20
2023-01-10T18:14:39.099Z,29.75
2023-01-10T18:17:11.407Z,32.40
2023-01-10T18:19:40.287Z,30.85
2023-01-10T18:22:22.896Z,32.60
2023-01-10T18:24:52.950Z,32.53
2023-01-10T18:27:22.010Z,30.92
2023-01-10T18:29:51.154Z,31.65
2023-01-10T18:32:22.630Z,34.78
2023-01-10T18:34:51.278Z,33.72
2023-01-10T18:37:20.245Z,32.65
2023-01-10T18:39:49.719Z,33.10
2023-01-10T18:42:18.623Z,33.23
2023-01-10T18:44:47.695Z,31.88
2023-01-10T18:47:16.512Z,33.92
2023-01-10T18:49:47.783Z,34.42
2023-01-10T18:52:17.410Z,32.63
2023-01-10T18:54:47.635Z,35.75
2023-01-10T18:57:16.481Z,37.35
2023-01-10T18:59:45.416Z,38.15
2023-01-10T19:02:15.413Z,38.05
2023-01-10T19:04:46.358Z,40.35
2023-01-10T19:07:16.736Z,41.88
2023-01-10T19:12:18.546Z,40.53
2023-01-10T19:14:47.429Z,40.97
2023-01-10T19:17:18.416Z,39.90
2023-01-10T19:19:47.087Z,41.08
2023-01-10T19:22:18.726Z,42.00
2023-01-10T19:24:47.675Z,38.30
2023-01-10T19:27:18.429Z,43.60
2023-01-10T19:29:50.052Z,41.75
2023-01-10T19:32:19.059Z,42.58
2023-01-10T19:34:47.586Z,42.80
2023-01-10T19:37:20.660Z,40.67
2023-01-10T19:39:50.940Z,41.25
2023-01-10T19:42:19.812Z,43.85
2023-01-10T19:44:48.849Z,41.72
2023-01-10T19:47:20.710Z,42.95
2023-01-10T19:49:49.343Z,45.78
2023-01-10T19:52:19.708Z,47.88
2023-01-10T19:54:50.812Z,46.90
2023-01-10T19:57:19.690Z,48.35
2023-01-10T19:59:51.841Z,46.88
2023-01-10T20:02:20.690Z,51.88
2023-01-10T20:04:49.497Z,53.70
2023-01-10T20:07:20.853Z,56.30
2023-01-10T20:09:49.932Z,56.22
2023-01-10T20:12:18.813Z,52.15
2023-01-10T20:14:47.671Z,67.65
2023-01-10T20:17:16.550Z,70.78
2023-01-10T20:19:45.112Z,79.43
2023-01-10T20:22:13.915Z,88.03
2023-01-10T20:24:45.331Z,81.97
2023-01-10T20:27:14.170Z,86.88
2023-01-10T20:29:45.888Z,83.05
2023-01-10T20:32:15.260Z,84.35
2023-01-10T20:34:44.744Z,73.72
2023-01-10T20:37:14.332Z,72.82
2023-01-10T20:39:44.786Z,74.45
2023-01-10T20:42:13.703Z,57.67
2023-01-10T20:44:42.461Z,68.60
2023-01-10T20:47:11.276Z,62.00
2023-01-10T20:49:39.818Z,65.40
2023-01-10T20:52:10.005Z,56.97
2023-01-10T20:54:38.993Z,55.90
2023-01-10T20:57:09.291Z,61.55
2023-01-10T20:59:39.203Z,58.80
2023-01-10T21:02:08.494Z,57.40
2023-01-10T21:04:37.217Z,54.70
2023-01-10T21:07:06.898Z,58.97
2023-01-10T21:09:35.805Z,49.22
2023-01-10T21:12:21.747Z,59.70
2023-01-10T21:14:53.910Z,50.85
2023-01-10T21:17:25.401Z,51.10
2023-01-10T21:19:53.856Z,53.92
2023-01-10T21:22:22.691Z,52.85
2023-01-10T21:24:52.959Z,44.22
2023-01-10T21:29:50.308Z,51.10
2023-01-10T21:32:20.657Z,47.88
2023-01-10T21:37:18.223Z,45.95
2023-01-10T21:39:47.011Z,47.90
2023-01-10T21:42:33.095Z,46.45
2023-01-10T21:45:02.030Z,49.28
2023-01-10T21:47:32.325Z,47.97
2023-01-10T21:50:01.378Z,44.50
2023-01-10T21:52:29.838Z,49.70
2023-01-10T21:54:59.019Z,50.95
2023-01-10T21:57:28.370Z,55.58
2023-01-10T21:59:57.142Z,50.45
2023-01-10T22:02:27.433Z,50.20
2023-01-10T22:04:58.179Z,49.50
2023-01-10T22:07:28.841Z,49.85
2023-01-10T22:09:57.696Z,46.88
2023-01-10T22:12:27.925Z,46.15
2023-01-10T22:17:26.245Z,47.25
2023-01-10T22:19:57.265Z,39.70
2023-01-10T22:22:26.417Z,46.42
2023-01-10T22:24:55.277Z,55.15
2023-01-10T22:27:24.316Z,59.30
2023-01-10T22:29:53.269Z,44.92
2023-01-10T22:32:22.335Z,44.50
2023-01-10T22:34:50.903Z,46.40
2023-01-10T22:37:21.258Z,44.92
2023-01-10T22:42:19.968Z,44.38
2023-01-10T22:44:49.095Z,49.40
2023-01-10T22:47:18.015Z,60.15
2023-01-10T22:49:47.054Z,47.28
2023-01-10T22:52:15.961Z,44.95
2023-01-10T22:54:46.413Z,51.08
2023-01-10T22:57:15.666Z,49.67
2023-01-10T22:59:44.572Z,47.55
2023-01-10T23:02:14.208Z,45.83
2023-01-10T23:04:42.931Z,47.03
2023-01-10T23:07:13.079Z,53.80
2023-01-10T23:09:41.770Z,47.40
2023-01-10T23:12:12.048Z,53.17
2023-01-10T23:17:09.350Z,55.08
2023-01-10T23:19:37.675Z,56.15
2023-01-10T23:22:06.381Z,52.03
2023-01-10T23:24:35.061Z,51.70
2023-01-10T23:27:03.858Z,55.00
2023-01-10T23:29:33.957Z,50.35
2023-01-10T23:32:02.832Z,50.53
2023-01-10T23:34:31.455Z,51.83
2023-01-10T23:37:00.191Z,57.63
2023-01-10T23:39:30.098Z,54.63
2023-01-10T23:41:58.859Z,54.00
2023-01-10T23:44:28.885Z,55.45
2023-01-10T23:47:00.000Z,51.47
2023-01-10T23:49:28.757Z,52.65
2023-01-10T23:51:57.498Z,59.95
2023-01-10T23:54:26.313Z,64.93
2023-01-10T23:56:55.054Z,63.25
2023-01-10T23:59:24.029Z,62.03
